sensor_id;sensor_type;location;lat;lon;timestamp;pressure;altitude;pressure_sealevel;temperature;humidity
72110;BME280;59983;52.010;5.420;2023-11-22T00:00:13;102707.59;;;19.62;76.12
72110;BME280;59983;52.010;5.420;2023-11-22T00:02:40;102712.31;;;19.62;75.83
72110;BME280;59983;52.010;5.420;2023-11-22T00:05:07;102711.88;;;19.60;75.87
72110;BME280;59983;52.010;5.420;2023-11-22T00:07:33;102710.28;;;19.59;76.38
72110;BME280;59983;52.010;5.420;2023-11-22T00:10:00;102710.63;;;19.57;75.89
72110;BME280;59983;52.010;5.420;2023-11-22T00:12:27;102710.19;;;19.55;75.89
72110;BME280;59983;52.010;5.420;2023-11-22T00:14:54;102712.50;;;19.53;75.66
72110;BME280;59983;52.010;5.420;2023-11-22T00:17:21;102717.53;;;19.51;75.56
72110;BME280;59983;52.010;5.420;2023-11-22T00:19:48;102717.91;;;19.49;75.72
72110;BME280;59983;52.010;5.420;2023-11-22T00:22:15;102722.19;;;19.47;76.44
72110;BME280;59983;52.010;5.420;2023-11-22T00:24:41;102728.06;;;19.45;76.20
72110;BME280;59983;52.010;5.420;2023-11-22T00:27:08;102733.94;;;19.44;76.67
72110;BME280;59983;52.010;5.420;2023-11-22T00:29:37;102728.75;;;19.42;76.14
72110;BME280;59983;52.010;5.420;2023-11-22T00:32:03;102730.28;;;19.40;76.29
72110;BME280;59983;52.010;5.420;2023-11-22T00:34:31;102728.69;;;19.39;76.71
72110;BME280;59983;52.010;5.420;2023-11-22T00:36:57;102734.56;;;19.37;76.15
72110;BME280;59983;52.010;5.420;2023-11-22T00:39:24;102730.22;;;19.36;76.44
72110;BME280;59983;52.010;5.420;2023-11-22T00:41:50;102725.41;;;19.33;76.61
72110;BME280;59983;52.010;5.420;2023-11-22T00:44:17;102719.09;;;19.33;76.25
72110;BME280;59983;52.010;5.420;2023-11-22T00:46:44;102726.13;;;19.30;76.32
72110;BME280;59983;52.010;5.420;2023-11-22T00:49:12;102723.75;;;19.29;76.40
72110;BME280;59983;52.010;5.420;2023-11-22T00:51:39;102733.16;;;19.28;76.25
72110;BME280;59983;52.010;5.420;2023-11-22T00:54:06;102736.28;;;19.26;76.25
72110;BME280;59983;52.010;5.420;2023-11-22T00:56:32;102736.63;;;19.24;76.05
72110;BME280;59983;52.010;5.420;2023-11-22T00:58:59;102724.38;;;19.22;76.03
72110;BME280;59983;52.010;5.420;2023-11-22T01:01:26;102740.88;;;19.22;76.10
72110;BME280;59983;52.010;5.420;2023-11-22T01:03:53;102748.72;;;19.20;76.08
72110;BME280;59983;52.010;5.420;2023-11-22T01:06:19;102749.06;;;19.18;75.91
72110;BME280;59983;52.010;5.420;2023-11-22T01:08:46;102745.84;;;19.16;75.97
72110;BME280;59983;52.010;5.420;2023-11-22T01:11:14;102752.50;;;19.15;76.04
72110;BME280;59983;52.010;5.420;2023-11-22T01:13:41;102760.34;;;19.13;76.08
72110;BME280;59983;52.010;5.420;2023-11-22T01:16:10;102772.13;;;19.14;76.09
72110;BME280;59983;52.010;5.420;2023-11-22T01:18:36;102774.44;;;19.12;75.76
72110;BME280;59983;52.010;5.420;2023-11-22T01:21:05;102786.59;;;19.11;75.93
72110;BME280;59983;52.010;5.420;2023-11-22T01:23:32;102797.97;;;19.09;75.83
72110;BME280;59983;52.010;5.420;2023-11-22T01:25:59;102794.44;;;19.09;76.17
72110;BME280;59983;52.010;5.420;2023-11-22T01:28:27;102807.72;;;19.07;75.79
72110;BME280;59983;52.010;5.420;2023-11-22T01:30:53;102800.63;;;19.06;75.77
72110;BME280;59983;52.010;5.420;2023-11-22T01:33:23;102799.03;;;19.05;75.82
72110;BME280;59983;52.010;5.420;2023-11-22T01:35:50;102801.34;;;19.03;75.71
72110;BME280;59983;52.010;5.420;2023-11-22T01:38:16;102800.91;;;19.01;76.03
72110;BME280;59983;52.010;5.420;2023-11-22T01:40:47;102806.41;;;19.01;75.80
72110;BME280;59983;52.010;5.420;2023-11-22T01:43:17;102805.59;;;19.00;75.92
72110;BME280;59983;52.010;5.420;2023-11-22T01:45:44;102806.28;;;18.97;75.95
72110;BME280;59983;52.010;5.420;2023-11-22T01:48:12;102803.09;;;18.95;75.69
72110;BME280;59983;52.010;5.420;2023-11-22T01:50:39;102798.75;;;18.94;75.90
72110;BME280;59983;52.010;5.420;2023-11-22T01:53:08;102793.25;;;18.94;75.65
72110;BME280;59983;52.010;5.420;2023-11-22T01:55:38;102782.97;;;18.91;75.86
72110;BME280;59983;52.010;5.420;2023-11-22T01:58:06;102787.31;;;18.92;75.61
72110;BME280;59983;52.010;5.420;2023-11-22T02:00:39;102788.81;;;18.89;75.62
72110;BME280;59983;52.010;5.420;2023-11-22T02:03:08;102784.47;;;18.88;75.87
72110;BME280;59983;52.010;5.420;2023-11-22T02:05:35;102791.91;;;18.88;75.78
72110;BME280;59983;52.010;5.420;2023-11-22T02:08:01;102793.06;;;18.87;75.46
72110;BME280;59983;52.010;5.420;2023-11-22T02:10:28;102799.72;;;18.86;75.51
72110;BME280;59983;52.010;5.420;2023-11-22T02:12:56;102805.59;;;18.84;75.79
72110;BME280;59983;52.010;5.420;2023-11-22T02:15:22;102808.69;;;18.83;75.23
72110;BME280;59983;52.010;5.420;2023-11-22T02:17:49;102810.66;;;18.82;75.45
72110;BME280;59983;52.010;5.420;2023-11-22T02:20:18;102809.03;;;18.81;75.57
72110;BME280;59983;52.010;5.420;2023-11-22T02:22:46;102812.94;;;18.80;75.62
72110;BME280;59983;52.010;5.420;2023-11-22T02:25:13;102808.16;;;18.77;75.50
72110;BME280;59983;52.010;5.420;2023-11-22T02:27:41;102815.25;;;18.78;75.52
72110;BME280;59983;52.010;5.420;2023-11-22T02:30:09;102816.41;;;18.77;75.20
72110;BME280;59983;52.010;5.420;2023-11-22T02:32:37;102812.06;;;18.76;75.30
72110;BME280;59983;52.010;5.420;2023-11-22T02:35:05;102810.81;;;18.74;75.57
72110;BME280;59983;52.010;5.420;2023-11-22T02:37:35;102802.56;;;18.74;75.37
72110;BME280;59983;52.010;5.420;2023-11-22T02:40:06;102805.66;;;18.72;75.31
72110;BME280;59983;52.010;5.420;2023-11-22T02:42:35;102800.50;;;18.71;75.23
72110;BME280;59983;52.010;5.420;2023-11-22T02:45:02;102798.91;;;18.70;75.17
72110;BME280;59983;52.010;5.420;2023-11-22T02:47:29;102792.63;;;18.69;75.17
72110;BME280;59983;52.010;5.420;2023-11-22T02:49:56;102798.47;;;18.67;75.28
72110;BME280;59983;52.010;5.420;2023-11-22T02:52:23;102798.81;;;18.66;75.21
72110;BME280;59983;52.010;5.420;2023-11-22T02:54:52;102778.28;;;18.63;75.09
72110;BME280;59983;52.010;5.420;2023-11-22T02:57:19;102787.03;;;18.65;75.08
72110;BME280;59983;52.010;5.420;2023-11-22T02:59:46;102781.03;;;18.63;74.96
72110;BME280;59983;52.010;5.420;2023-11-22T03:02:12;102789.63;;;18.62;75.34
72110;BME280;59983;52.010;5.420;2023-11-22T03:04:41;102786.91;;;18.62;75.11
72110;BME280;59983;52.010;5.420;2023-11-22T03:07:07;102797.88;;;18.62;75.21
72110;BME280;59983;52.010;5.420;2023-11-22T03:09:34;102788.03;;;18.61;75.11
72110;BME280;59983;52.010;5.420;2023-11-22T03:12:00;102784.84;;;18.59;74.96
72110;BME280;59983;52.010;5.420;2023-11-22T03:14:28;102790.72;;;18.57;75.03
72110;BME280;59983;52.010;5.420;2023-11-22T03:16:58;102793.47;;;18.57;75.24
72110;BME280;59983;52.010;5.420;2023-11-22T03:19:25;102800.13;;;18.56;75.03
72110;BME280;59983;52.010;5.420;2023-11-22T03:21:51;102803.19;;;18.55;75.24
72110;BME280;59983;52.010;5.420;2023-11-22T03:24:18;102807.88;;;18.54;75.00
72110;BME280;59983;52.010;5.420;2023-11-22T03:26:45;102814.53;;;18.53;74.97
72110;BME280;59983;52.010;5.420;2023-11-22T03:29:11;102825.88;;;18.52;75.19
72110;BME280;59983;52.010;5.420;2023-11-22T03:31:38;102837.69;;;18.52;75.03
72110;BME280;59983;52.010;5.420;2023-11-22T03:34:06;102840.00;;;18.50;74.81
72110;BME280;59983;52.010;5.420;2023-11-22T03:36:32;102837.59;;;18.49;74.63
72110;BME280;59983;52.010;5.420;2023-11-22T03:38:59;102839.53;;;18.48;75.03
72110;BME280;59983;52.010;5.420;2023-11-22T03:41:25;102851.69;;;18.47;75.02
72110;BME280;59983;52.010;5.420;2023-11-22T03:43:52;102853.63;;;18.47;75.19
72110;BME280;59983;52.010;5.420;2023-11-22T03:46:19;102863.81;;;18.46;74.97
72110;BME280;59983;52.010;5.420;2023-11-22T03:48:45;102862.22;;;18.45;74.69
72110;BME280;59983;52.010;5.420;2023-11-22T03:51:11;102866.09;;;18.44;74.76
72110;BME280;59983;52.010;5.420;2023-11-22T03:53:38;102874.34;;;18.44;74.65
72110;BME280;59983;52.010;5.420;2023-11-22T03:56:05;102884.09;;;18.42;74.92
72110;BME280;59983;52.010;5.420;2023-11-22T03:58:31;102880.91;;;18.39;74.74
72110;BME280;59983;52.010;5.420;2023-11-22T04:00:58;102894.66;;;18.39;74.76
72110;BME280;59983;52.010;5.420;2023-11-22T04:03:25;102891.91;;;18.39;74.69
72110;BME280;59983;52.010;5.420;2023-11-22T04:05:51;102890.31;;;18.38;74.75
72110;BME280;59983;52.010;5.420;2023-11-22T04:08:18;102898.06;;;18.36;74.78
72110;BME280;59983;52.010;5.420;2023-11-22T04:10:45;102902.41;;;18.37;74.59
72110;BME280;59983;52.010;5.420;2023-11-22T04:13:11;102915.72;;;18.35;74.50
72110;BME280;59983;52.010;5.420;2023-11-22T04:15:38;102903.13;;;18.34;74.43
72110;BME280;59983;52.010;5.420;2023-11-22T04:18:05;102902.69;;;18.32;74.52
72110;BME280;59983;52.010;5.420;2023-11-22T04:20:32;102906.56;;;18.31;74.55
72110;BME280;59983;52.010;5.420;2023-11-22T04:22:59;102913.22;;;18.30;74.44
72110;BME280;59983;52.010;5.420;2023-11-22T04:25:26;102914.03;;;18.31;74.79
72110;BME280;59983;52.010;5.420;2023-11-22T04:27:53;102919.38;;;18.27;74.53
72110;BME280;59983;52.010;5.420;2023-11-22T04:30:19;102922.13;;;18.27;74.47
72110;BME280;59983;52.010;5.420;2023-11-22T04:32:46;102917.78;;;18.26;74.46
72110;BME280;59983;52.010;5.420;2023-11-22T04:35:14;102917.00;;;18.26;74.55
72110;BME280;59983;52.010;5.420;2023-11-22T04:37:41;102927.19;;;18.25;74.39
72110;BME280;59983;52.010;5.420;2023-11-22T04:40:08;102934.63;;;18.25;74.45
72110;BME280;59983;52.010;5.420;2023-11-22T04:42:37;102929.47;;;18.23;74.41
72110;BME280;59983;52.010;5.420;2023-11-22T04:45:04;102919.66;;;18.22;74.49
72110;BME280;59983;52.010;5.420;2023-11-22T04:47:32;102927.09;;;18.22;74.43
72110;BME280;59983;52.010;5.420;2023-11-22T04:49:59;102926.28;;;18.21;74.40
72110;BME280;59983;52.010;5.420;2023-11-22T04:52:25;102923.88;;;18.20;74.54
72110;BME280;59983;52.010;5.420;2023-11-22T04:54:55;102922.28;;;18.19;74.39
72110;BME280;59983;52.010;5.420;2023-11-22T04:57:22;102919.88;;;18.17;74.42
72110;BME280;59983;52.010;5.420;2023-11-22T04:59:48;102920.66;;;18.18;74.21
72110;BME280;59983;52.010;5.420;2023-11-22T05:02:15;102927.31;;;18.17;74.43
72110;BME280;59983;52.010;5.420;2023-11-22T05:04:42;102913.94;;;18.15;74.38
72110;BME280;59983;52.010;5.420;2023-11-22T05:07:09;102905.69;;;18.15;74.25
72110;BME280;59983;52.010;5.420;2023-11-22T05:09:35;102907.63;;;18.15;74.31
72110;BME280;59983;52.010;5.420;2023-11-22T05:12:02;102905.25;;;18.13;74.62
72110;BME280;59983;52.010;5.420;2023-11-22T05:14:29;102910.75;;;18.13;74.50
72110;BME280;59983;52.010;5.420;2023-11-22T05:16:56;102916.59;;;18.11;74.44
72110;BME280;59983;52.010;5.420;2023-11-22T05:19:23;102907.53;;;18.11;74.76
72110;BME280;59983;52.010;5.420;2023-11-22T05:21:49;102914.94;;;18.10;74.42
72110;BME280;59983;52.010;5.420;2023-11-22T05:24:16;102906.25;;;18.08;74.46
72110;BME280;59983;52.010;5.420;2023-11-22T05:26:42;102903.16;;;18.10;74.27
72110;BME280;59983;52.010;5.420;2023-11-22T05:29:09;102899.19;;;18.07;74.31
72110;BME280;59983;52.010;5.420;2023-11-22T05:31:36;102906.63;;;18.07;74.37
72110;BME280;59983;52.010;5.420;2023-11-22T05:34:04;102916.81;;;18.06;74.37
72110;BME280;59983;52.010;5.420;2023-11-22T05:36:30;102914.41;;;18.05;74.33
72110;BME280;59983;52.010;5.420;2023-11-22T05:38:57;102919.91;;;18.05;74.25
72110;BME280;59983;52.010;5.420;2023-11-22T05:41:26;102909.72;;;18.05;74.35
72110;BME280;59983;52.010;5.420;2023-11-22T05:43:53;102913.97;;;18.03;74.22
72110;BME280;59983;52.010;5.420;2023-11-22T05:46:21;102921.06;;;18.04;74.43
72110;BME280;59983;52.010;5.420;2023-11-22T05:48:48;102929.63;;;18.02;74.04
72110;BME280;59983;52.010;5.420;2023-11-22T05:51:18;102937.03;;;18.02;74.13
72110;BME280;59983;52.010;5.420;2023-11-22T05:53:45;102939.00;;;18.01;73.90
72110;BME280;59983;52.010;5.420;2023-11-22T05:56:12;102944.03;;;17.99;74.32
72110;BME280;59983;52.010;5.420;2023-11-22T05:58:38;102938.53;;;17.99;74.22
72110;BME280;59983;52.010;5.420;2023-11-22T06:01:05;102940.84;;;17.97;74.37
72110;BME280;59983;52.010;5.420;2023-11-22T06:03:32;102945.53;;;17.97;74.11
72110;BME280;59983;52.010;5.420;2023-11-22T06:06:00;102941.63;;;17.98;74.13
72110;BME280;59983;52.010;5.420;2023-11-22T06:08:26;102940.41;;;17.95;74.10
72110;BME280;59983;52.010;5.420;2023-11-22T06:10:53;102942.34;;;17.95;74.08
72110;BME280;59983;52.010;5.420;2023-11-22T06:13:23;102943.50;;;17.94;74.23
72110;BME280;59983;52.010;5.420;2023-11-22T06:15:50;102946.22;;;17.94;74.06
72110;BME280;59983;52.010;5.420;2023-11-22T06:18:17;102944.59;;;17.93;74.08
72110;BME280;59983;52.010;5.420;2023-11-22T06:20:45;102947.34;;;17.93;74.38
72110;BME280;59983;52.010;5.420;2023-11-22T06:23:13;102941.41;;;17.91;74.04
72110;BME280;59983;52.010;5.420;2023-11-22T06:25:41;102929.63;;;17.90;73.97
72110;BME280;59983;52.010;5.420;2023-11-22T06:28:08;102939.00;;;17.89;74.17
72110;BME280;59983;52.010;5.420;2023-11-22T06:30:35;102954.69;;;17.89;74.40
72110;BME280;59983;52.010;5.420;2023-11-22T06:33:01;102962.94;;;17.89;74.24
72110;BME280;59983;52.010;5.420;2023-11-22T06:35:28;102975.06;;;17.88;73.97
72110;BME280;59983;52.010;5.420;2023-11-22T06:37:54;102975.41;;;17.86;73.91
72110;BME280;59983;52.010;5.420;2023-11-22T06:40:21;102971.84;;;17.86;74.12
72110;BME280;59983;52.010;5.420;2023-11-22T06:42:48;102972.66;;;17.86;74.14
72110;BME280;59983;52.010;5.420;2023-11-22T06:45:14;102962.03;;;17.85;73.82
72110;BME280;59983;52.010;5.420;2023-11-22T06:47:42;102949.75;;;17.82;73.87
72110;BME280;59983;52.010;5.420;2023-11-22T06:50:09;102947.81;;;17.82;74.09
72110;BME280;59983;52.010;5.420;2023-11-22T06:52:38;102949.75;;;17.82;74.10
72110;BME280;59983;52.010;5.420;2023-11-22T06:55:06;102932.84;;;17.80;73.92
72110;BME280;59983;52.010;5.420;2023-11-22T06:57:36;102936.72;;;17.79;74.05
72110;BME280;59983;52.010;5.420;2023-11-22T07:00:04;102943.81;;;17.80;73.94
72110;BME280;59983;52.010;5.420;2023-11-22T07:02:32;102936.72;;;17.79;73.88
72110;BME280;59983;52.010;5.420;2023-11-22T07:04:58;102941.41;;;17.78;74.11
72110;BME280;59983;52.010;5.420;2023-11-22T07:07:29;102939.03;;;17.77;73.90
72110;BME280;59983;52.010;5.420;2023-11-22T07:09:56;102936.28;;;17.77;73.94
72110;BME280;59983;52.010;5.420;2023-11-22T07:12:26;102947.56;;;17.75;74.12
72110;BME280;59983;52.010;5.420;2023-11-22T07:14:56;102940.16;;;17.76;74.18
72110;BME280;59983;52.010;5.420;2023-11-22T07:17:22;102955.00;;;17.75;74.12
72110;BME280;59983;52.010;5.420;2023-11-22T07:19:49;102957.75;;;17.75;74.20
72110;BME280;59983;52.010;5.420;2023-11-22T07:22:15;102962.44;;;17.74;74.07
72110;BME280;59983;52.010;5.420;2023-11-22T07:24:43;102951.47;;;17.74;73.83
72110;BME280;59983;52.010;5.420;2023-11-22T07:27:14;102960.84;;;17.73;74.03
72110;BME280;59983;52.010;5.420;2023-11-22T07:29:41;102951.00;;;17.72;73.92
72110;BME280;59983;52.010;5.420;2023-11-22T07:32:08;102957.31;;;17.73;74.02
72110;BME280;59983;52.010;5.420;2023-11-22T07:34:36;102948.28;;;17.72;74.30
72110;BME280;59983;52.010;5.420;2023-11-22T07:37:03;102946.66;;;17.71;74.41
72110;BME280;59983;52.010;5.420;2023-11-22T07:39:29;102963.94;;;17.72;74.15
72110;BME280;59983;52.010;5.420;2023-11-22T07:41:56;102954.91;;;17.71;74.14
72110;BME280;59983;52.010;5.420;2023-11-22T07:44:23;102962.34;;;17.71;74.12
72110;BME280;59983;52.010;5.420;2023-11-22T07:46:50;102964.59;;;17.69;74.64
72110;BME280;59983;52.010;5.420;2023-11-22T07:49:20;102975.72;;;17.72;74.57
72110;BME280;59983;52.010;5.420;2023-11-22T07:51:49;102971.03;;;17.73;74.90
72110;BME280;59983;52.010;5.420;2023-11-22T07:54:19;102972.63;;;17.74;74.70
72110;BME280;59983;52.010;5.420;2023-11-22T07:56:49;102980.66;;;17.79;74.49
72110;BME280;59983;52.010;5.420;2023-11-22T07:59:16;102973.31;;;17.83;74.03
72110;BME280;59983;52.010;5.420;2023-11-22T08:01:43;102966.81;;;17.88;73.86
72110;BME280;59983;52.010;5.420;2023-11-22T08:04:15;102974.25;;;17.99;73.60
72110;BME280;59983;52.010;5.420;2023-11-22T08:06:43;102983.97;;;18.09;73.60
72110;BME280;59983;52.010;5.420;2023-11-22T08:09:10;103001.13;;;18.18;73.59
72110;BME280;59983;52.010;5.420;2023-11-22T08:11:36;103008.47;;;18.26;73.24
72110;BME280;59983;52.010;5.420;2023-11-22T08:14:03;103007.97;;;18.36;73.12
72110;BME280;59983;52.010;5.420;2023-11-22T08:16:30;103012.22;;;18.46;72.75
72110;BME280;59983;52.010;5.420;2023-11-22T08:18:57;103009.00;;;18.56;72.60
72110;BME280;59983;52.010;5.420;2023-11-22T08:21:23;103022.31;;;18.66;72.33
72110;BME280;59983;52.010;5.420;2023-11-22T08:23:51;103018.25;;;18.76;71.97
72110;BME280;59983;52.010;5.420;2023-11-22T08:26:19;103011.47;;;18.86;71.82
72110;BME280;59983;52.010;5.420;2023-11-22T08:28:46;103010.19;;;18.95;71.45
72110;BME280;59983;52.010;5.420;2023-11-22T08:31:12;103030.09;;;19.05;71.14
72110;BME280;59983;52.010;5.420;2023-11-22T08:33:39;103030.75;;;19.14;71.15
72110;BME280;59983;52.010;5.420;2023-11-22T08:36:06;103027.41;;;19.20;70.99
72110;BME280;59983;52.010;5.420;2023-11-22T08:38:35;103030.72;;;19.26;71.16
72110;BME280;59983;52.010;5.420;2023-11-22T08:41:05;103029.72;;;19.34;70.84
72110;BME280;59983;52.010;5.420;2023-11-22T08:43:37;103029.13;;;19.41;70.89
72110;BME280;59983;52.010;5.420;2023-11-22T08:46:04;103022.56;;;19.45;70.76
72110;BME280;59983;52.010;5.420;2023-11-22T08:48:40;103012.56;;;19.53;70.58
72110;BME280;59983;52.010;5.420;2023-11-22T08:51:08;103022.16;;;19.59;70.18
72110;BME280;59983;52.010;5.420;2023-11-22T08:53:36;103021.47;;;19.62;70.57
72110;BME280;59983;52.010;5.420;2023-11-22T08:56:04;103021.56;;;19.66;70.48
72110;BME280;59983;52.010;5.420;2023-11-22T08:58:32;103022.44;;;19.70;70.50
72110;BME280;59983;52.010;5.420;2023-11-22T09:01:00;103028.41;;;19.72;70.53
72110;BME280;59983;52.010;5.420;2023-11-22T09:03:27;103030.44;;;19.75;70.59
72110;BME280;59983;52.010;5.420;2023-11-22T09:05:54;103030.09;;;19.76;70.23
72110;BME280;59983;52.010;5.420;2023-11-22T09:08:22;103034.13;;;19.79;70.31
72110;BME280;59983;52.010;5.420;2023-11-22T09:10:53;103031.00;;;19.80;70.29
72110;BME280;59983;52.010;5.420;2023-11-22T09:13:21;103029.03;;;19.81;70.38
72110;BME280;59983;52.010;5.420;2023-11-22T09:15:49;103027.09;;;19.82;70.43
72110;BME280;59983;52.010;5.420;2023-11-22T09:18:16;103034.91;;;19.79;70.14
72110;BME280;59983;52.010;5.420;2023-11-22T09:20:43;103023.91;;;19.79;69.86
72110;BME280;59983;52.010;5.420;2023-11-22T09:23:12;103026.97;;;19.78;69.69
72110;BME280;59983;52.010;5.420;2023-11-22T09:25:40;103023.44;;;19.77;69.85
72110;BME280;59983;52.010;5.420;2023-11-22T09:28:07;103026.53;;;19.76;69.50
72110;BME280;59983;52.010;5.420;2023-11-22T09:30:35;103029.66;;;19.74;69.53
72110;BME280;59983;52.010;5.420;2023-11-22T09:33:09;103037.13;;;19.74;69.81
72110;BME280;59983;52.010;5.420;2023-11-22T09:35:37;103040.22;;;19.72;69.74
72110;BME280;59983;52.010;5.420;2023-11-22T09:38:07;103036.22;;;19.70;69.81
72110;BME280;59983;52.010;5.420;2023-11-22T09:40:44;103033.00;;;19.68;69.98
72110;BME280;59983;52.010;5.420;2023-11-22T09:43:12;103034.53;;;19.65;69.90
72110;BME280;59983;52.010;5.420;2023-11-22T09:45:41;103039.25;;;19.65;70.44
72110;BME280;59983;52.010;5.420;2023-11-22T09:48:15;103035.69;;;19.64;70.23
72110;BME280;59983;52.010;5.420;2023-11-22T09:50:56;103027.31;;;19.61;70.64
72110;BME280;59983;52.010;5.420;2023-11-22T09:56:03;103035.13;;;19.59;70.65
72110;BME280;59983;52.010;5.420;2023-11-22T09:58:31;103035.13;;;19.59;70.89
72110;BME280;59983;52.010;5.420;2023-11-22T10:01:02;103031.59;;;19.58;70.84
72110;BME280;59983;52.010;5.420;2023-11-22T10:03:34;103030.78;;;19.58;70.87
72110;BME280;59983;52.010;5.420;2023-11-22T10:06:01;103042.97;;;19.57;70.88
72110;BME280;59983;52.010;5.420;2023-11-22T10:08:30;103043.75;;;19.57;71.04
72110;BME280;59983;52.010;5.420;2023-11-22T10:10:58;103044.56;;;19.58;70.76
72110;BME280;59983;52.010;5.420;2023-11-22T10:13:26;103040.22;;;19.57;70.86
72110;BME280;59983;52.010;5.420;2023-11-22T10:15:53;103033.91;;;19.56;71.04
72110;BME280;59983;52.010;5.420;2023-11-22T10:18:20;103027.91;;;19.54;70.76
72110;BME280;59983;52.010;5.420;2023-11-22T10:20:49;103011.41;;;19.54;71.14
72110;BME280;59983;52.010;5.420;2023-11-22T10:23:17;103014.03;;;19.50;70.84
72110;BME280;59983;52.010;5.420;2023-11-22T10:25:44;103004.63;;;19.51;70.97
72110;BME280;59983;52.010;5.420;2023-11-22T10:28:12;103005.44;;;19.52;70.90
72110;BME280;59983;52.010;5.420;2023-11-22T10:30:38;103009.34;;;19.51;71.25
72110;BME280;59983;52.010;5.420;2023-11-22T10:33:06;103010.84;;;19.48;71.23
72110;BME280;59983;52.010;5.420;2023-11-22T10:35:33;103011.66;;;19.49;71.30
72110;BME280;59983;52.010;5.420;2023-11-22T10:38:00;103013.16;;;19.46;71.25
72110;BME280;59983;52.010;5.420;2023-11-22T10:40:32;103000.56;;;19.45;71.49
72110;BME280;59983;52.010;5.420;2023-11-22T10:42:59;102996.66;;;19.46;71.59
72110;BME280;59983;52.010;5.420;2023-11-22T10:45:29;102991.50;;;19.45;71.86
72110;BME280;59983;52.010;5.420;2023-11-22T10:47:56;102993.47;;;19.44;71.88
72110;BME280;59983;52.010;5.420;2023-11-22T10:50:24;102989.06;;;19.43;71.98
72110;BME280;59983;52.010;5.420;2023-11-22T10:52:51;102972.91;;;19.42;72.09
72110;BME280;59983;52.010;5.420;2023-11-22T10:55:26;102977.63;;;19.41;72.37
72110;BME280;59983;52.010;5.420;2023-11-22T10:57:56;102975.22;;;19.40;72.25
72110;BME280;59983;52.010;5.420;2023-11-22T11:00:23;102970.53;;;19.40;72.39
72110;BME280;59983;52.010;5.420;2023-11-22T11:02:59;102977.19;;;19.39;72.55
72110;BME280;59983;52.010;5.420;2023-11-22T11:05:31;102978.34;;;19.38;72.49
72110;BME280;59983;52.010;5.420;2023-11-22T11:08:17;102985.81;;;19.38;72.78
72110;BME280;59983;52.010;5.420;2023-11-22T11:10:47;102985.00;;;19.37;77.89
72110;BME280;59983;52.010;5.420;2023-11-22T11:13:15;102981.44;;;19.37;73.95
72110;BME280;59983;52.010;5.420;2023-11-22T11:15:42;102974.00;;;19.37;74.66
72110;BME280;59983;52.010;5.420;2023-11-22T11:18:13;102960.59;;;19.36;74.96
72110;BME280;59983;52.010;5.420;2023-11-22T11:23:20;102921.34;;;19.39;75.96
72110;BME280;59983;52.010;5.420;2023-11-22T11:25:49;102906.78;;;19.38;76.49
72110;BME280;59983;52.010;5.420;2023-11-22T11:28:16;102902.50;;;19.41;76.56
72110;BME280;59983;52.010;5.420;2023-11-22T11:30:47;102896.56;;;19.39;76.41
72110;BME280;59983;52.010;5.420;2023-11-22T11:33:18;102888.31;;;19.39;76.24
72110;BME280;59983;52.010;5.420;2023-11-22T11:35:49;102897.72;;;19.38;76.08
72110;BME280;59983;52.010;5.420;2023-11-22T11:38:19;102899.25;;;19.35;75.75
72110;BME280;59983;52.010;5.420;2023-11-22T11:40:48;102889.72;;;19.33;75.59
72110;BME280;59983;52.010;5.420;2023-11-22T11:43:20;102880.25;;;19.30;75.24
72110;BME280;59983;52.010;5.420;2023-11-22T11:45:47;102878.22;;;19.27;74.81
72110;BME280;59983;52.010;5.420;2023-11-22T11:48:14;102873.03;;;19.25;74.77
72110;BME280;59983;52.010;5.420;2023-11-22T11:50:46;102878.09;;;19.23;74.95
72110;BME280;59983;52.010;5.420;2023-11-22T11:53:13;102881.66;;;19.24;75.21
72110;BME280;59983;52.010;5.420;2023-11-22T11:55:39;102875.25;;;19.20;75.60
72110;BME280;59983;52.010;5.420;2023-11-22T11:58:06;102878.47;;;19.22;75.55
72110;BME280;59983;52.010;5.420;2023-11-22T12:00:36;102883.97;;;19.22;75.87
72110;BME280;59983;52.010;5.420;2023-11-22T12:03:07;102883.97;;;19.22;75.98
72110;BME280;59983;52.010;5.420;2023-11-22T12:05:38;102887.06;;;19.20;76.02
72110;BME280;59983;52.010;5.420;2023-11-22T12:08:05;102878.03;;;19.20;76.01
72110;BME280;59983;52.010;5.420;2023-11-22T12:10:32;102878.38;;;19.18;76.26
72110;BME280;59983;52.010;5.420;2023-11-22T12:12:58;102885.47;;;19.19;76.49
72110;BME280;59983;52.010;5.420;2023-11-22T12:15:25;102879.19;;;19.19;76.71
72110;BME280;59983;52.010;5.420;2023-11-22T12:17:51;102869.31;;;19.18;76.67
72110;BME280;59983;52.010;5.420;2023-11-22T12:20:21;102864.63;;;19.18;76.84
72110;BME280;59983;52.010;5.420;2023-11-22T12:22:48;102875.97;;;19.17;76.98
72110;BME280;59983;52.010;5.420;2023-11-22T12:25:15;102874.03;;;19.17;77.01
72110;BME280;59983;52.010;5.420;2023-11-22T12:27:43;102875.97;;;19.17;77.16
72110;BME280;59983;52.010;5.420;2023-11-22T12:30:28;102869.66;;;19.16;77.08
72110;BME280;59983;52.010;5.420;2023-11-22T12:33:03;102867.25;;;19.15;77.25
72110;BME280;59983;52.010;5.420;2023-11-22T12:35:31;102853.50;;;19.15;77.41
72110;BME280;59983;52.010;5.420;2023-11-22T12:38:01;102860.16;;;19.14;77.48
72110;BME280;59983;52.010;5.420;2023-11-22T12:40:29;102868.41;;;19.14;77.59
72110;BME280;59983;52.010;5.420;2023-11-22T12:43:00;102849.53;;;19.12;77.61
72110;BME280;59983;52.010;5.420;2023-11-22T12:45:28;102853.06;;;19.13;77.57
72110;BME280;59983;52.010;5.420;2023-11-22T12:47:56;102835.75;;;19.12;77.66
72110;BME280;59983;52.010;5.420;2023-11-22T12:50:36;102834.16;;;19.11;77.59
72110;BME280;59983;52.010;5.420;2023-11-22T12:53:09;102837.28;;;19.10;77.92
72110;BME280;59983;52.010;5.420;2023-11-22T12:55:50;102830.97;;;19.09;77.86
72110;BME280;59983;52.010;5.420;2023-11-22T12:58:19;102831.31;;;19.08;78.12